Hiload Dp1 — 5BML2 — position and weather

sailwx.info

Track history (hours):
 
Tides and Currents Weather Stations Pressure Air Temp Water Temp Dewpoint Dewpoint Depression Visibility Wind Speed Wind Dir Waves Ship Positions

Hiload Dp1

Last reported at 2013-Sep-03 08:21 UTC. Time now 2014-Dec-20 15:08 UTC.
Position N 29°27' W 015°01'.
Warning: this ship's position is years out of date!

Length 28 m; draft 18 m.

Type: Other ship. MMSI: 210168000.

Date/timePositionNaut miles runAvg speedWind from/ knotsBaromVisibWave heightAir tempDewpointWater temp
2013-Sep-03 08:21N 29°27' W 015°01'17 3.0
2013-Sep-03 02:34N 29°44' W 014°56'9 3.1
2013-Sep-02 23:34N 29°53' W 014°53'48 3.4
2013-Sep-02 09:33N 30°40' W 014°40'6 3.1
2013-Sep-02 07:33N 30°46' W 014°38'3 3.2
2013-Sep-02 06:34N 30°49' W 014°37'7 3.3
2013-Sep-02 04:33N 30°55' W 014°36'3 3.3
2013-Sep-02 03:34N 30°58' W 014°35'17 3.4
2013-Sep-01 22:32N 31°15' W 014°30'3 3.5
2013-Sep-01 21:33N 31°18' W 014°29'51 3.6
2013-Sep-01 07:19N 32°08' W 014°14'10 3.5
2013-Sep-01 04:34N 32°17' W 014°12'3 3.4
2013-Sep-01 03:33N 32°21' W 014°11'11 3.6
2013-Sep-01 00:31N 32°31' W 014°07'3 3.6
2013-Aug-31 23:33N 32°35' W 014°07'4 3.7
2013-Aug-31 22:34N 32°38' W 014°05'  
Track history (hours):
 
Tides and Currents Weather Stations Pressure Air Temp Water Temp Dewpoint Dewpoint Depression Visibility Wind Speed Wind Dir Waves Ship Positions

Hiload Dp1

Last reported at 2013-Sep-03 08:21 UTC. Time now 2014-Dec-20 15:08 UTC.
Position N 29°27' W 015°01'.
Warning: this ship's position is years out of date!

Length 28 m; draft 18 m.

Type: Other ship. MMSI: 210168000.

Date/timePositionNaut miles runAvg speedWind from/ knotsBaromVisibWave heightAir tempDewpointWater temp
2013-Sep-03 08:21N 29°27' W 015°01'17 3.0
2013-Sep-03 02:34N 29°44' W 014°56'9 3.1
2013-Sep-02 23:34N 29°53' W 014°53'48 3.4
2013-Sep-02 09:33N 30°40' W 014°40'6 3.1
2013-Sep-02 07:33N 30°46' W 014°38'3 3.2
2013-Sep-02 06:34N 30°49' W 014°37'7 3.3
2013-Sep-02 04:33N 30°55' W 014°36'3 3.3
2013-Sep-02 03:34N 30°58' W 014°35'17 3.4
2013-Sep-01 22:32N 31°15' W 014°30'3 3.5
2013-Sep-01 21:33N 31°18' W 014°29'51 3.6
2013-Sep-01 07:19N 32°08' W 014°14'10 3.5
2013-Sep-01 04:34N 32°17' W 014°12'3 3.4
2013-Sep-01 03:33N 32°21' W 014°11'11 3.6
2013-Sep-01 00:31N 32°31' W 014°07'3 3.6
2013-Aug-31 23:33N 32°35' W 014°07'4 3.7
2013-Aug-31 22:34N 32°38' W 014°05'  

Dump ship's entire track history